createdAt,value
2019-04-29T00:00:35.704Z,100778.88
2019-04-29T00:03:05.168Z,100781.16
2019-04-29T00:05:34.254Z,100784.91
2019-04-29T00:08:03.502Z,100786.03
2019-04-29T00:10:32.813Z,100785.91
2019-04-29T00:13:01.987Z,100787.14
2019-04-29T00:15:48.907Z,100791.34
2019-04-29T00:18:26.170Z,100789.28
2019-04-29T00:20:55.313Z,100795.66
2019-04-29T00:23:24.610Z,100790.95
2019-04-29T00:25:54.001Z,100789.41
2019-04-29T00:28:23.425Z,100794.52
2019-04-29T00:30:52.716Z,100798.95
2019-04-29T00:33:21.910Z,100788.44
2019-04-29T00:35:51.109Z,100792.67
2019-04-29T00:38:41.678Z,100783.94
2019-04-29T00:41:45.391Z,100793.09
2019-04-29T00:44:16.165Z,100788.27
2019-04-29T00:46:45.445Z,100788.39
2019-04-29T00:49:14.743Z,100790.12
2019-04-29T00:51:44.021Z,100791.48
2019-04-29T00:54:31.765Z,100794.95
2019-04-29T00:57:00.979Z,100797.01
2019-04-29T00:59:30.173Z,100796.41
2019-04-29T01:01:59.386Z,100794.89
2019-04-29T01:04:28.632Z,100793.24
2019-04-29T01:06:57.866Z,100792.62
2019-04-29T01:09:28.646Z,100798.92
2019-04-29T01:11:57.731Z,100798.52
2019-04-29T01:14:26.962Z,100796.86
2019-04-29T01:16:56.051Z,100796.86
2019-04-29T01:19:25.116Z,100802.36
2019-04-29T01:21:54.166Z,100799.55
2019-04-29T01:24:23.338Z,100799.55
2019-04-29T01:27:17.345Z,100804.86
2019-04-29T01:29:46.429Z,100805.95
2019-04-29T01:32:15.520Z,100805.95
2019-04-29T01:35:02.761Z,100793.26
2019-04-29T01:37:42.605Z,100794.03
2019-04-29T01:40:31.323Z,100802.38
2019-04-29T01:43:00.408Z,100802.38
2019-04-29T01:45:29.453Z,100801.24
2019-04-29T01:47:58.621Z,100801.34
2019-04-29T01:50:27.750Z,100802.25
2019-04-29T01:52:56.944Z,100802.25
2019-04-29T01:55:26.090Z,100802.01
2019-04-29T01:57:55.333Z,100806.80
2019-04-29T02:00:24.558Z,100807.18
2019-04-29T02:02:54.121Z,100807.27
2019-04-29T02:05:23.249Z,100809.84
2019-04-29T02:07:52.329Z,100818.70
2019-04-29T02:10:30.433Z,100818.70
2019-04-29T02:13:01.553Z,100822.87
2019-04-29T02:15:30.631Z,100818.45
2019-04-29T02:17:59.802Z,100818.45
2019-04-29T02:20:29.069Z,100808.08
2019-04-29T02:23:18.954Z,100808.08
2019-04-29T02:25:48.429Z,100810.73
2019-04-29T02:28:17.655Z,100807.55
2019-04-29T02:30:48.667Z,100807.18
2019-04-29T02:33:17.954Z,100804.19
2019-04-29T02:35:47.089Z,100803.91
2019-04-29T02:38:27.175Z,100805.09
2019-04-29T02:41:24.309Z,100805.09
2019-04-29T02:43:55.356Z,100798.08
2019-04-29T02:46:24.637Z,100798.08
2019-04-29T02:48:53.954Z,100800.40
2019-04-29T02:51:40.631Z,100803.05
2019-04-29T02:54:10.129Z,100808.94
2019-04-29T02:56:40.518Z,100808.94
2019-04-29T02:59:10.156Z,100811.34
2019-04-29T03:01:49.700Z,100802.34
2019-04-29T03:04:21.472Z,100804.38
2019-04-29T03:06:50.712Z,100805.56
2019-04-29T03:09:19.930Z,100805.56
2019-04-29T03:11:49.195Z,100802.14
2019-04-29T03:14:18.367Z,100802.67
2019-04-29T03:16:47.538Z,100801.11
2019-04-29T03:19:21.996Z,100798.50
2019-04-29T03:21:56.676Z,100798.50
2019-04-29T03:24:26.060Z,100798.84
2019-04-29T03:26:55.409Z,100803.39
2019-04-29T03:29:24.496Z,100806.69
2019-04-29T03:31:55.774Z,100800.48
2019-04-29T03:34:25.203Z,100806.91
2019-04-29T03:36:54.459Z,100814.44
2019-04-29T03:39:23.667Z,100818.91
2019-04-29T03:41:52.712Z,100821.50
2019-04-29T03:44:21.790Z,100821.50
2019-04-29T03:46:50.840Z,100816.97
2019-04-29T03:49:20.315Z,100822.27
2019-04-29T03:51:49.378Z,100822.27
2019-04-29T03:54:18.559Z,100817.38
2019-04-29T03:56:47.960Z,100819.41
2019-04-29T03:59:17.047Z,100817.24
2019-04-29T04:02:04.708Z,100817.24
2019-04-29T04:04:51.506Z,100826.58
2019-04-29T04:07:39.657Z,100826.58
2019-04-29T04:10:09.053Z,100830.72
2019-04-29T04:12:38.321Z,100832.95
2019-04-29T04:15:07.865Z,100832.95
2019-04-29T04:17:42.684Z,100836.29
2019-04-29T04:20:11.990Z,100836.29
2019-04-29T04:22:47.819Z,100837.05
2019-04-29T04:25:17.703Z,100842.41
2019-04-29T04:27:47.692Z,100847.52
2019-04-29T04:30:17.272Z,100842.55
2019-04-29T04:32:46.347Z,100845.70
2019-04-29T04:35:15.445Z,100847.07
2019-04-29T04:37:44.604Z,100854.31
2019-04-29T04:40:16.502Z,100854.31
2019-04-29T04:42:45.925Z,100857.91
2019-04-29T04:45:15.232Z,100861.67
2019-04-29T04:47:44.465Z,100863.65
2019-04-29T04:50:13.541Z,100863.65
2019-04-29T04:52:42.823Z,100865.11
2019-04-29T04:55:12.474Z,100863.04
2019-04-29T04:57:41.627Z,100856.48
2019-04-29T05:00:19.832Z,100865.69
2019-04-29T05:02:47.569Z,100862.92
2019-04-29T05:05:16.670Z,100866.84
2019-04-29T05:07:46.002Z,100866.84
2019-04-29T05:10:15.366Z,100869.36
2019-04-29T05:12:44.463Z,100869.36
2019-04-29T05:15:13.833Z,100878.36
2019-04-29T05:17:43.075Z,100878.36
2019-04-29T05:20:12.401Z,100880.30
2019-04-29T05:22:45.125Z,100880.30
2019-04-29T05:25:14.460Z,100873.93
2019-04-29T05:27:43.659Z,100872.13
2019-04-29T05:30:12.747Z,100877.68
2019-04-29T05:32:42.086Z,100875.83
2019-04-29T05:35:13.944Z,100874.79
2019-04-29T05:38:05.003Z,100877.16
2019-04-29T05:40:38.985Z,100876.76
2019-04-29T05:43:10.123Z,100876.76
2019-04-29T05:45:58.276Z,100873.64
2019-04-29T05:48:31.615Z,100872.55
2019-04-29T05:51:07.741Z,100887.61
2019-04-29T05:53:41.157Z,100894.54
2019-04-29T05:56:10.447Z,100899.72
2019-04-29T05:58:39.723Z,100899.72
2019-04-29T06:01:13.773Z,100899.31
2019-04-29T06:03:44.402Z,100898.75
2019-04-29T06:06:14.467Z,100900.06
2019-04-29T06:08:43.666Z,100908.05
2019-04-29T06:11:12.768Z,100907.93
2019-04-29T06:13:41.929Z,100906.86
2019-04-29T06:16:11.016Z,100910.35
2019-04-29T06:18:40.997Z,100904.57
2019-04-29T06:21:11.280Z,100910.22
2019-04-29T06:23:40.682Z,100911.04
2019-04-29T06:26:09.972Z,100911.52
2019-04-29T06:28:39.206Z,100914.28
2019-04-29T06:31:08.450Z,100904.20
2019-04-29T06:33:37.674Z,100907.97
2019-04-29T06:36:06.976Z,100907.34
2019-04-29T06:38:36.275Z,100909.09
2019-04-29T06:41:09.311Z,100907.78
2019-04-29T06:43:36.460Z,100906.16
2019-04-29T06:46:05.527Z,100911.98
2019-04-29T06:48:34.829Z,100912.34
2019-04-29T06:51:04.068Z,100912.88
2019-04-29T06:53:33.303Z,100917.39
2019-04-29T06:56:02.655Z,100922.89
2019-04-29T06:58:32.437Z,100921.09
2019-04-29T07:01:03.412Z,100920.27
2019-04-29T07:03:32.426Z,100929.95
2019-04-29T07:06:01.505Z,100928.61
2019-04-29T07:08:30.735Z,100927.97
2019-04-29T07:11:01.240Z,100933.46
2019-04-29T07:13:31.026Z,100933.61
2019-04-29T07:16:00.209Z,100930.97
2019-04-29T07:18:29.441Z,100935.77
2019-04-29T07:20:58.612Z,100933.11
2019-04-29T07:23:27.758Z,100935.13
2019-04-29T07:25:57.138Z,100930.59
2019-04-29T07:28:26.250Z,100933.61
2019-04-29T07:31:03.307Z,100934.72
2019-04-29T07:33:26.472Z,100933.02
2019-04-29T07:35:55.872Z,100927.16
2019-04-29T07:38:25.152Z,100933.13
2019-04-29T07:40:54.583Z,100926.57
2019-04-29T07:43:23.642Z,100924.52
2019-04-29T07:46:07.738Z,100924.63
2019-04-29T07:48:41.728Z,100928.77
2019-04-29T07:51:07.746Z,100927.16
2019-04-29T07:53:44.782Z,100924.40
2019-04-29T07:56:08.311Z,100923.20
2019-04-29T07:58:37.430Z,100916.86
2019-04-29T08:01:07.016Z,100912.80
2019-04-29T08:03:36.165Z,100916.95
2019-04-29T08:06:05.441Z,100915.40
2019-04-29T08:08:35.263Z,100912.36
2019-04-29T08:11:04.383Z,100905.66
2019-04-29T08:13:33.926Z,100905.00
2019-04-29T08:16:03.040Z,100915.78
2019-04-29T08:18:32.223Z,100913.78
2019-04-29T08:21:01.382Z,100912.02
2019-04-29T08:23:33.077Z,100920.75
2019-04-29T08:26:02.615Z,100925.62
2019-04-29T08:28:32.842Z,100919.73
2019-04-29T08:31:02.224Z,100920.12
2019-04-29T08:33:31.346Z,100917.47
2019-04-29T08:36:00.699Z,100917.52
2019-04-29T08:38:29.854Z,100920.90
2019-04-29T08:40:59.008Z,100919.41
2019-04-29T08:44:15.747Z,100923.91
2019-04-29T08:46:44.457Z,100926.61
2019-04-29T08:49:14.769Z,100925.63
2019-04-29T08:51:43.862Z,100925.53
2019-04-29T08:54:16.030Z,100928.68
2019-04-29T08:57:01.882Z,100925.53
2019-04-29T08:59:15.337Z,100920.34
2019-04-29T09:01:44.576Z,100914.73
2019-04-29T09:04:13.717Z,100918.95
2019-04-29T09:06:43.005Z,100916.62
2019-04-29T09:09:27.893Z,100910.67
2019-04-29T09:11:47.419Z,100915.91
2019-04-29T09:14:14.632Z,100915.80
2019-04-29T09:16:43.718Z,100912.45
2019-04-29T09:19:13.138Z,100910.58
2019-04-29T09:21:45.014Z,100910.92
2019-04-29T09:24:14.253Z,100912.85
2019-04-29T09:26:48.396Z,100910.79
2019-04-29T09:29:33.879Z,100915.27
2019-04-29T09:32:04.511Z,100911.69
2019-04-29T09:34:33.657Z,100915.48
2019-04-29T09:37:02.815Z,100910.50
2019-04-29T09:39:42.884Z,100911.02
2019-04-29T09:42:26.711Z,100911.44
2019-04-29T09:45:08.460Z,100912.85
2019-04-29T09:47:37.881Z,100913.41
2019-04-29T09:50:08.083Z,100905.64
2019-04-29T09:52:37.210Z,100916.42
2019-04-29T09:55:06.670Z,100910.19
2019-04-29T09:57:35.754Z,100908.33
2019-04-29T10:00:14.353Z,100898.03
2019-04-29T10:03:05.559Z,100900.11
2019-04-29T10:05:40.785Z,100899.88
2019-04-29T10:08:09.859Z,100894.73
2019-04-29T10:10:39.029Z,100892.14
2019-04-29T10:13:08.214Z,100891.34
2019-04-29T10:15:50.703Z,100891.64
2019-04-29T10:18:41.867Z,100882.50
2019-04-29T10:21:16.414Z,100880.64
2019-04-29T10:23:44.090Z,100873.86
2019-04-29T10:26:13.397Z,100864.51
2019-04-29T10:29:01.432Z,100868.55
2019-04-29T10:31:30.532Z,100861.38
2019-04-29T10:33:59.588Z,100868.22
2019-04-29T10:36:28.683Z,100857.97
2019-04-29T10:39:01.495Z,100862.52
2019-04-29T10:41:41.814Z,100852.82
2019-04-29T10:44:37.253Z,100858.89
2019-04-29T10:47:13.959Z,100849.55
2019-04-29T10:49:49.565Z,100847.06
2019-04-29T10:52:17.731Z,100838.49
2019-04-29T10:54:51.581Z,100839.61
2019-04-29T10:57:19.416Z,100833.37
2019-04-29T10:59:51.638Z,100838.69
2019-04-29T11:02:49.386Z,100836.00
2019-04-29T11:05:37.830Z,100831.67
2019-04-29T11:08:29.318Z,100827.38
2019-04-29T11:11:02.368Z,100819.53
2019-04-29T11:13:30.355Z,100822.35
2019-04-29T11:15:59.625Z,100823.83
2019-04-29T11:18:28.891Z,100819.63
2019-04-29T11:20:58.031Z,100819.17
2019-04-29T11:23:33.115Z,100819.77
2019-04-29T11:26:20.014Z,100824.57
2019-04-29T11:28:51.264Z,100812.38
2019-04-29T11:31:21.211Z,100808.45
2019-04-29T11:34:11.679Z,100799.24
2019-04-29T11:36:44.083Z,100798.44
2019-04-29T11:39:13.915Z,100785.25
2019-04-29T11:41:42.633Z,100795.84
2019-04-29T11:44:11.747Z,100788.80
2019-04-29T11:46:44.643Z,100782.65
2019-04-29T11:49:13.785Z,100773.08
2019-04-29T11:52:07.799Z,100775.30
2019-04-29T11:54:18.102Z,100772.90
2019-04-29T11:56:47.638Z,100773.19
2019-04-29T11:59:35.751Z,100773.81
2019-04-29T12:02:24.287Z,100771.62
2019-04-29T12:04:58.041Z,100769.08
2019-04-29T12:07:32.795Z,100761.67
2019-04-29T12:10:02.281Z,100767.16
2019-04-29T12:12:31.251Z,100758.20
2019-04-29T12:15:16.682Z,100754.95
2019-04-29T12:18:04.716Z,100752.77
2019-04-29T12:20:52.771Z,100745.38
2019-04-29T12:23:22.193Z,100745.77
2019-04-29T12:25:51.428Z,100739.22
2019-04-29T12:28:21.042Z,100739.98
2019-04-29T12:30:51.978Z,100737.38
2019-04-29T12:33:26.697Z,100745.48
2019-04-29T12:36:03.332Z,100739.07
2019-04-29T12:38:51.484Z,100740.20
2019-04-29T12:41:51.638Z,100738.75
2019-04-29T12:44:35.334Z,100738.27
2019-04-29T12:47:08.883Z,100737.83
2019-04-29T12:49:38.377Z,100740.30
2019-04-29T12:52:07.567Z,100737.02
2019-04-29T12:54:36.867Z,100730.96
2019-04-29T12:57:05.961Z,100723.56
2019-04-29T12:59:37.231Z,100728.48
2019-04-29T13:02:28.629Z,100724.10
2019-04-29T13:05:28.402Z,100729.15
2019-04-29T13:08:07.208Z,100712.81
2019-04-29T13:10:50.312Z,100712.98
2019-04-29T13:13:20.134Z,100713.73
2019-04-29T13:16:08.282Z,100706.16
2019-04-29T13:19:10.700Z,100710.59
2019-04-29T13:21:30.923Z,100703.86
2019-04-29T13:24:13.744Z,100704.44
2019-04-29T13:26:33.254Z,100702.11
2019-04-29T13:29:02.514Z,100700.24
2019-04-29T13:31:38.564Z,100693.25
2019-04-29T13:34:22.470Z,100687.63
2019-04-29T13:36:35.788Z,100690.10
2019-04-29T13:39:08.541Z,100679.73
2019-04-29T13:41:55.643Z,100683.86
2019-04-29T13:44:08.638Z,100681.89
2019-04-29T13:46:51.206Z,100682.94
2019-04-29T13:49:29.553Z,100680.69
2019-04-29T13:51:59.255Z,100672.19
2019-04-29T13:54:28.384Z,100680.77
2019-04-29T13:57:07.746Z,100678.73
2019-04-29T13:59:35.943Z,100679.39
2019-04-29T14:02:16.679Z,100673.47
2019-04-29T14:04:56.029Z,100673.61
2019-04-29T14:07:25.255Z,100668.81
2019-04-29T14:09:54.483Z,100660.87
2019-04-29T14:14:58.606Z,100664.02
2019-04-29T14:17:27.133Z,100663.41
2019-04-29T14:18:53.505Z,100665.80
2019-04-29T14:19:57.208Z,100657.56
2019-04-29T14:22:26.523Z,100653.73
2019-04-29T14:24:55.637Z,100660.56
2019-04-29T14:27:25.624Z,100657.23
2019-04-29T14:29:54.953Z,100646.58
2019-04-29T14:32:34.602Z,100648.92
2019-04-29T14:35:07.113Z,100647.64
2019-04-29T14:37:36.264Z,100641.92
2019-04-29T14:40:07.605Z,100643.73
2019-04-29T14:43:02.965Z,100646.11
2019-04-29T14:45:57.898Z,100647.10
2019-04-29T14:48:42.653Z,100643.72
2019-04-29T14:51:09.561Z,100640.48
2019-04-29T14:53:38.876Z,100637.11
2019-04-29T14:56:08.107Z,100635.14
2019-04-29T14:58:37.621Z,100636.87
2019-04-29T15:01:23.548Z,100639.25
2019-04-29T15:03:55.331Z,100637.70
2019-04-29T15:06:28.375Z,100634.41
2019-04-29T15:08:55.893Z,100641.70
2019-04-29T15:11:31.849Z,100639.86
2019-04-29T15:14:05.007Z,100635.41
2019-04-29T15:16:39.799Z,100633.05
2019-04-29T15:19:27.303Z,100631.97
2019-04-29T15:22:02.884Z,100629.13
2019-04-29T15:24:32.704Z,100626.21
2019-04-29T15:27:03.088Z,100625.91
2019-04-29T15:29:33.581Z,100627.94
2019-04-29T15:32:03.100Z,100625.47
2019-04-29T15:34:32.269Z,100619.84
2019-04-29T15:37:01.359Z,100624.48
2019-04-29T15:39:30.769Z,100623.83
2019-04-29T15:42:01.941Z,100622.32
2019-04-29T15:44:30.894Z,100620.73
2019-04-29T15:46:59.991Z,100620.95
2019-04-29T15:49:29.229Z,100618.55
2019-04-29T15:51:58.616Z,100617.28
2019-04-29T15:54:27.713Z,100611.94
2019-04-29T15:56:56.873Z,100614.47
2019-04-29T15:59:26.759Z,100617.80
2019-04-29T16:01:59.019Z,100618.85
2019-04-29T16:04:33.652Z,100619.30
2019-04-29T16:07:28.009Z,100619.14
2019-04-29T16:10:09.422Z,100617.05
2019-04-29T16:12:45.431Z,100629.50
2019-04-29T16:15:15.102Z,100615.55
2019-04-29T16:17:44.183Z,100620.52
2019-04-29T16:20:13.355Z,100625.97
2019-04-29T16:22:42.713Z,100628.73
2019-04-29T16:25:12.961Z,100643.25
2019-04-29T16:27:51.537Z,100645.73
2019-04-29T16:30:18.613Z,100651.22
2019-04-29T16:32:44.506Z,100653.34
2019-04-29T16:35:17.854Z,100649.53
2019-04-29T16:37:44.867Z,100657.64
2019-04-29T16:40:14.233Z,100666.16
2019-04-29T16:42:58.939Z,100667.16
2019-04-29T16:45:51.519Z,100656.27
2019-04-29T16:48:18.323Z,100662.80
2019-04-29T16:50:47.534Z,100658.97
2019-04-29T16:53:17.404Z,100660.16
2019-04-29T16:55:47.400Z,100665.67
2019-04-29T16:58:18.427Z,100663.81
2019-04-29T17:00:52.772Z,100670.55
2019-04-29T17:03:19.213Z,100665.83
2019-04-29T17:05:48.415Z,100668.40
2019-04-29T17:08:19.267Z,100669.98
2019-04-29T17:11:04.001Z,100667.31
2019-04-29T17:13:34.221Z,100667.92
2019-04-29T17:16:05.224Z,100661.08
2019-04-29T17:18:34.804Z,100671.09
2019-04-29T17:21:07.232Z,100673.58
2019-04-29T17:23:35.268Z,100671.81
2019-04-29T17:26:04.553Z,100673.34
2019-04-29T17:28:49.367Z,100675.45
2019-04-29T17:31:36.655Z,100678.23
2019-04-29T17:34:54.468Z,100677.43
2019-04-29T17:36:50.069Z,100685.06
2019-04-29T17:39:20.174Z,100689.20
2019-04-29T17:41:49.769Z,100686.31
2019-04-29T17:44:35.756Z,100684.22
2019-04-29T17:47:11.660Z,100690.40
2019-04-29T17:50:02.043Z,100679.06
2019-04-29T17:52:31.516Z,100683.29
2019-04-29T17:55:12.755Z,100681.84
2019-04-29T17:57:54.489Z,100683.08
2019-04-29T18:00:58.260Z,100687.27
2019-04-29T18:03:41.530Z,100686.31
2019-04-29T18:06:26.263Z,100685.56
2019-04-29T18:09:20.799Z,100685.75
2019-04-29T18:11:53.522Z,100686.25
2019-04-29T18:14:21.457Z,100683.09
2019-04-29T18:16:51.347Z,100680.36
2019-04-29T18:19:34.516Z,100685.92
2019-04-29T18:22:34.917Z,100685.42
2019-04-29T18:25:30.709Z,100686.66
2019-04-29T18:28:00.029Z,100682.71
2019-04-29T18:30:35.712Z,100684.10
2019-04-29T18:33:00.526Z,100687.41
2019-04-29T18:35:30.354Z,100682.73
2019-04-29T18:38:00.701Z,100688.94
2019-04-29T18:40:35.375Z,100695.01
2019-04-29T18:43:01.536Z,100681.97
2019-04-29T18:45:34.520Z,100687.65
2019-04-29T18:48:04.133Z,100692.02
2019-04-29T18:50:38.955Z,100689.14
2019-04-29T18:53:08.401Z,100688.80
2019-04-29T18:55:37.669Z,100696.23
2019-04-29T18:58:07.053Z,100684.47
2019-04-29T19:00:36.495Z,100690.53
2019-04-29T19:03:06.596Z,100698.16
2019-04-29T19:05:45.382Z,100705.45
2019-04-29T19:08:19.137Z,100701.94
2019-04-29T19:10:49.912Z,100705.85
2019-04-29T19:13:18.296Z,100710.07
2019-04-29T19:15:50.172Z,100710.15
2019-04-29T19:18:21.277Z,100706.31
2019-04-29T19:20:52.681Z,100701.21
2019-04-29T19:23:24.980Z,100703.44
2019-04-29T19:25:54.329Z,100704.01
2019-04-29T19:28:30.078Z,100703.89
2019-04-29T19:30:56.044Z,100703.97
2019-04-29T19:33:30.790Z,100710.80
2019-04-29T19:35:58.483Z,100712.89
2019-04-29T19:38:31.285Z,100714.12
2019-04-29T19:41:01.031Z,100719.33
2019-04-29T19:43:30.720Z,100718.75
2019-04-29T19:46:00.735Z,100725.33
2019-04-29T19:48:30.057Z,100717.78
2019-04-29T19:51:14.502Z,100716.41
2019-04-29T19:53:37.720Z,100714.69
2019-04-29T19:56:04.927Z,100715.06
2019-04-29T19:58:35.524Z,100720.74
2019-04-29T20:01:13.838Z,100710.02
2019-04-29T20:03:42.169Z,100715.45
2019-04-29T20:06:21.441Z,100716.59
2019-04-29T20:08:53.865Z,100713.14
2019-04-29T20:11:17.402Z,100711.53
2019-04-29T20:14:01.307Z,100710.84
2019-04-29T20:16:44.800Z,100710.00
2019-04-29T20:19:27.334Z,100711.53
2019-04-29T20:21:59.937Z,100713.20
2019-04-29T20:24:26.628Z,100709.80
2019-04-29T20:26:56.014Z,100703.17
2019-04-29T20:29:27.261Z,100698.58
2019-04-29T20:31:58.718Z,100694.47
2019-04-29T20:34:28.641Z,100698.94
2019-04-29T20:36:58.247Z,100680.16
2019-04-29T20:39:27.702Z,100684.69
2019-04-29T20:42:01.129Z,100673.34
2019-04-29T20:44:28.448Z,100679.08
2019-04-29T20:47:16.686Z,100672.47
2019-04-29T20:49:30.850Z,100673.50
2019-04-29T20:52:07.987Z,100668.83
2019-04-29T20:54:38.496Z,100666.15
2019-04-29T20:57:17.560Z,100657.14
2019-04-29T20:59:42.114Z,100650.41
2019-04-29T21:02:12.771Z,100650.80
2019-04-29T21:04:46.448Z,100650.31
2019-04-29T21:07:18.508Z,100641.98
2019-04-29T21:09:43.477Z,100639.52
2019-04-29T21:12:20.806Z,100636.22
2019-04-29T21:14:53.235Z,100643.18
2019-04-29T21:17:29.386Z,100640.09
2019-04-29T21:19:53.703Z,100640.94
2019-04-29T21:22:24.161Z,100642.16
2019-04-29T21:24:55.091Z,100647.02
2019-04-29T21:27:26.038Z,100643.68
2019-04-29T21:29:55.535Z,100635.50
2019-04-29T21:32:25.802Z,100629.79
2019-04-29T21:35:10.293Z,100636.33
2019-04-29T21:37:53.957Z,100639.73
2019-04-29T21:40:36.704Z,100628.75
2019-04-29T21:43:13.476Z,100623.77
2019-04-29T21:45:45.023Z,100625.67
2019-04-29T21:48:12.189Z,100629.19
2019-04-29T21:50:41.697Z,100627.98
2019-04-29T21:53:10.818Z,100618.27
2019-04-29T21:55:40.032Z,100611.32
2019-04-29T21:58:10.909Z,100603.91
2019-04-29T22:00:40.643Z,100614.67
2019-04-29T22:03:09.712Z,100615.22
2019-04-29T22:05:38.869Z,100613.54
2019-04-29T22:08:08.329Z,100621.00
2019-04-29T22:10:37.511Z,100621.31
2019-04-29T22:13:07.126Z,100628.36
2019-04-29T22:15:39.096Z,100624.22
2019-04-29T22:18:14.008Z,100627.02
2019-04-29T22:20:42.340Z,100625.48
2019-04-29T22:23:13.174Z,100625.46
2019-04-29T22:25:41.161Z,100630.84
2019-04-29T22:28:15.865Z,100625.84
2019-04-29T22:30:45.300Z,100622.80
2019-04-29T22:33:15.307Z,100629.63
2019-04-29T22:35:45.268Z,100635.55
2019-04-29T22:38:16.697Z,100621.65
2019-04-29T22:40:45.732Z,100632.09
2019-04-29T22:43:27.131Z,100646.15
2019-04-29T22:45:56.554Z,100642.20
2019-04-29T22:48:25.730Z,100641.88
2019-04-29T22:50:55.617Z,100632.94
2019-04-29T22:53:25.207Z,100633.69
2019-04-29T22:55:56.403Z,100630.34
2019-04-29T22:58:25.378Z,100618.51
2019-04-29T23:00:54.706Z,100626.23
2019-04-29T23:03:23.841Z,100629.11
2019-04-29T23:05:53.178Z,100629.20
2019-04-29T23:08:22.286Z,100628.86
2019-04-29T23:10:51.444Z,100623.84
2019-04-29T23:13:21.262Z,100622.16
2019-04-29T23:15:53.800Z,100614.83
2019-04-29T23:18:26.768Z,100618.02
2019-04-29T23:21:20.405Z,100613.31
2019-04-29T23:23:55.160Z,100615.61
2019-04-29T23:26:24.975Z,100615.39
2019-04-29T23:28:55.431Z,100615.05
2019-04-29T23:31:27.075Z,100613.70
2019-04-29T23:33:56.726Z,100617.23
2019-04-29T23:36:26.046Z,100612.95
2019-04-29T23:38:56.638Z,100612.90
2019-04-29T23:41:32.786Z,100613.09
2019-04-29T23:43:59.957Z,100603.27
2019-04-29T23:46:29.762Z,100580.55
2019-04-29T23:49:03.100Z,100574.34
2019-04-29T23:51:34.258Z,100578.37
2019-04-29T23:54:07.200Z,100583.23
2019-04-29T23:56:38.466Z,100575.96
2019-04-29T23:59:18.199Z,100582.22
